Time;durP1;ratioP1;P1;durP2;ratioP2;P2;SDS_P1;SDS_P2;PMS_P1;PMS_P2;Temp;Humidity;BMP_temperature;BMP_pressure;BME280_temperature;BME280_humidity;BME280_pressure;Samples;Min_cycle;Max_cycle;Signal;HPM_P1;HPM_P2
2021/12/20 00:00:17;;;;;;;3.80;2.60;;;;;;;22.72;36.77;94302.25;5046412;28;20388;-57
2021/12/20 00:02:43;;;;;;;4.70;2.83;;;;;;;22.69;37.18;94303.28;5046822;28;20458;-56
2021/12/20 00:05:09;;;;;;;3.80;2.60;;;;;;;22.67;37.15;94303.09;5046530;28;20055;-54
2021/12/20 00:07:34;;;;;;;4.78;2.50;;;;;;;22.64;37.00;94304.13;5045912;28;20052;-58
2021/12/20 00:09:59;;;;;;;3.85;2.67;;;;;;;22.61;36.96;94305.19;5046543;28;20017;-61
2021/12/20 00:12:25;;;;;;;4.05;2.75;;;;;;;22.59;37.07;94310.41;5046218;28;20025;-58
2021/12/20 00:14:50;;;;;;;4.22;2.72;;;;;;;22.55;37.07;94307.25;5046372;28;20021;-58
2021/12/20 00:17:16;;;;;;;4.10;2.55;;;;;;;22.56;36.99;94308.75;5030373;28;20031;-59
2021/12/20 00:19:41;;;;;;;4.65;2.70;;;;;;;22.53;37.09;94320.66;5045169;28;20045;-56
2021/12/20 00:22:07;;;;;;;6.10;2.80;;;;;;;22.48;37.31;94307.88;5046301;28;20060;-54
2021/12/20 00:24:32;;;;;;;4.22;2.47;;;;;;;22.50;37.31;94321.69;5046103;28;20040;-57
2021/12/20 00:26:57;;;;;;;6.30;2.75;;;;;;;22.47;37.25;94328.19;5046725;28;20033;-53
2021/12/20 00:29:23;;;;;;;3.65;2.55;;;;;;;22.43;37.27;94317.63;5029125;28;20080;-58
2021/12/20 00:31:48;;;;;;;4.95;2.50;;;;;;;22.41;37.49;94314.66;5046492;28;20588;-55
2021/12/20 00:34:14;;;;;;;3.35;2.15;;;;;;;22.41;37.28;94324.81;5041544;28;20451;-55
2021/12/20 00:36:39;;;;;;;3.97;2.42;;;;;;;22.40;37.21;94317.91;5025900;28;20037;-53
2021/12/20 00:41:49;;;;;;;3.78;2.40;;;;;;;22.36;37.42;94331.09;5045998;28;20086;-54
2021/12/20 00:44:14;;;;;;;3.85;2.50;;;;;;;22.30;37.25;94325.00;5045952;28;20032;-54
2021/12/20 00:46:39;;;;;;;4.80;3.00;;;;;;;22.31;37.52;94331.88;5045963;28;20481;-57
2021/12/20 00:49:05;;;;;;;5.30;3.00;;;;;;;22.30;37.45;94335.88;5045800;28;20059;-57
2021/12/20 00:51:30;;;;;;;4.28;2.65;;;;;;;22.28;37.53;94332.91;5045872;28;20399;-54
2021/12/20 00:53:56;;;;;;;4.20;2.67;;;;;;;22.27;37.52;94323.31;5045919;28;20025;-57
2021/12/20 00:56:21;;;;;;;4.00;2.65;;;;;;;22.25;37.50;94320.34;5036550;28;20029;-56
2021/12/20 00:58:47;;;;;;;5.32;2.90;;;;;;;22.17;37.76;94316.75;5036071;28;20029;-58
2021/12/20 01:01:12;;;;;;;4.28;2.42;;;;;;;22.23;37.57;94325.59;5027207;28;20033;-55
2021/12/20 01:03:37;;;;;;;3.83;2.53;;;;;;;22.19;37.49;94319.69;5044948;28;20120;-57
2021/12/20 01:06:03;;;;;;;3.45;2.38;;;;;;;22.20;37.67;94310.28;5045936;28;20163;-55
2021/12/20 01:08:33;;;;;;;4.68;2.45;;;;;;;22.17;37.58;94311.31;5045312;28;20102;-56
2021/12/20 01:11:00;;;;;;;;;;;;;;;22.19;37.62;94319.69;5045929;28;20033;-58
2021/12/20 01:13:28;;;;;;;3.72;2.08;;;;;;;22.15;37.52;94313.84;5045265;28;19975;-57
2021/12/20 01:15:57;;;;;;;4.13;2.80;;;;;;;22.14;37.59;94317.06;5027771;28;20028;-57
2021/12/20 01:18:22;;;;;;;3.88;2.78;;;;;;;22.12;37.66;94314.88;5045422;28;20045;-56
2021/12/20 01:20:48;;;;;;;3.90;2.50;;;;;;;22.12;37.78;94292.34;5045156;28;20450;-54
2021/12/20 01:23:13;;;;;;;4.72;2.67;;;;;;;22.11;37.57;94310.66;5060374;28;20032;-59
2021/12/20 01:25:39;;;;;;;3.78;2.38;;;;;;;22.08;37.50;94314.41;5064964;28;20037;-54
2021/12/20 01:28:04;;;;;;;4.55;2.53;;;;;;;22.09;37.65;94320.59;5053610;28;20037;-56
2021/12/20 01:30:30;;;;;;;4.13;2.53;;;;;;;22.06;37.75;94300.63;5034238;28;20025;-56
2021/12/20 01:32:55;;;;;;;5.07;2.75;;;;;;;22.06;37.69;94316.94;5044861;28;20495;-57
2021/12/20 01:35:23;;;;;;;3.92;2.50;;;;;;;22.03;37.62;94307.09;5044958;28;20372;-58
2021/12/20 01:37:48;;;;;;;4.35;2.50;;;;;;;21.89;37.88;94293.94;5010720;28;20032;-55
2021/12/20 01:40:14;;;;;;;3.80;2.45;;;;;;;22.02;37.84;94305.63;5044831;28;20033;-55
2021/12/20 01:42:40;;;;;;;4.68;2.60;;;;;;;22.02;37.85;94302.91;5044545;28;20025;-55
2021/12/20 01:45:10;;;;;;;5.03;2.60;;;;;;;22.01;38.02;94301.41;5044620;28;20101;-54
2021/12/20 01:47:38;;;;;;;3.58;2.15;;;;;;;22.00;37.75;94302.69;5044344;28;20087;-57
2021/12/20 01:50:16;;;;;;;4.18;2.60;;;;;;;21.99;37.87;94305.91;5038110;28;20037;-56
2021/12/20 01:52:43;;;;;;;3.92;2.50;;;;;;;21.96;38.32;94306.97;5035465;28;20029;-56
2021/12/20 01:55:14;;;;;;;4.70;2.80;;;;;;;21.95;37.79;94306.19;5044737;28;20481;-58
2021/12/20 01:57:39;;;;;;;4.07;2.65;;;;;;;21.94;37.93;94304.75;5027900;28;20383;-56
2021/12/20 02:00:17;;;;;;;3.65;2.47;;;;;;;21.93;37.87;94303.28;5044415;28;20061;-55
2021/12/20 02:02:43;;;;;;;4.05;2.40;;;;;;;21.92;38.02;94311.94;5044847;28;20418;-59
2021/12/20 02:05:18;;;;;;;3.85;2.13;;;;;;;21.92;37.96;94327.53;5044525;28;20190;-61
2021/12/20 02:07:58;;;;;;;4.05;2.35;;;;;;;21.91;37.95;94321.34;5060644;28;20032;-59
2021/12/20 02:10:23;;;;;;;3.95;2.30;;;;;;;21.90;37.98;94324.56;5044061;28;20056;-60
2021/12/20 02:12:49;;;;;;;3.20;2.20;;;;;;;21.89;37.85;94312.25;5044807;28;20047;-62
2021/12/20 02:15:14;;;;;;;3.85;2.30;;;;;;;21.88;37.92;94310.78;5010636;28;20029;-59
2021/12/20 02:17:40;;;;;;;4.43;2.45;;;;;;;21.87;37.97;94309.28;5027663;28;20026;-59
2021/12/20 02:20:05;;;;;;;3.60;2.13;;;;;;;21.85;38.03;94325.41;5044006;28;20052;-56
2021/12/20 02:22:31;;;;;;;3.20;2.25;;;;;;;21.84;38.14;94329.34;5044250;28;20040;-59
2021/12/20 02:24:56;;;;;;;4.03;2.40;;;;;;;21.84;37.96;94326.63;5045408;28;20415;-53
2021/12/20 02:27:23;;;;;;;4.00;2.10;;;;;;;21.73;37.96;94305.06;5046256;28;20403;-57
2021/12/20 02:30:06;;;;;;;4.30;2.58;;;;;;;21.83;38.09;94336.06;5044355;28;20077;-57
2021/12/20 02:38:22;;;;;;;4.00;2.72;;;;;;;21.78;37.96;94312.38;5031889;28;20044;-55
2021/12/20 02:40:56;;;;;;;3.20;2.10;;;;;;;21.77;38.14;94322.53;5044057;28;20033;-54
2021/12/20 02:43:22;;;;;;;3.55;2.50;;;;;;;21.74;37.96;94311.97;5043973;28;20040;-53
2021/12/20 02:45:48;;;;;;;3.35;2.00;;;;;;;21.75;38.07;94329.72;5043977;28;20021;-53
2021/12/20 02:48:13;;;;;;;3.10;2.20;;;;;;;21.74;38.18;94328.28;5042418;28;20074;-53
2021/12/20 02:50:38;;;;;;;3.40;2.05;;;;;;;21.74;38.13;94328.28;5043853;28;20032;-53
2021/12/20 02:53:04;;;;;;;3.97;2.45;;;;;;;21.73;38.21;94334.94;5026397;28;20043;-54
2021/12/20 02:55:29;;;;;;;3.72;2.35;;;;;;;21.73;38.08;94337.66;5043888;28;20036;-55
2021/12/20 02:57:55;;;;;;;3.45;2.33;;;;;;;21.71;38.07;94332.03;5028651;28;20025;-54
2021/12/20 03:00:20;;;;;;;3.97;2.33;;;;;;;21.71;38.22;94318.44;5044120;28;20028;-55
2021/12/20 03:02:45;;;;;;;3.50;2.00;;;;;;;21.70;38.17;94319.66;5024685;28;20021;-52
2021/12/20 03:05:11;;;;;;;3.92;2.25;;;;;;;21.70;38.17;94327.81;5043863;28;20032;-54
2021/12/20 03:07:48;;;;;;;2.90;2.30;;;;;;;21.71;38.03;94313.00;5025603;28;20025;-53
2021/12/20 03:10:14;;;;;;;4.05;2.25;;;;;;;21.68;38.15;94308.59;5043665;28;20070;-53
2021/12/20 03:12:39;;;;;;;3.80;2.28;;;;;;;21.68;38.22;94314.03;5043890;28;20029;-53
2021/12/20 03:15:12;;;;;;;3.40;2.22;;;;;;;21.68;38.22;94308.59;5043864;28;20091;-56
2021/12/20 03:17:37;;;;;;;2.80;1.80;;;;;;;21.67;38.26;94312.53;5043588;28;20025;-52
2021/12/20 03:20:03;;;;;;;3.45;2.50;;;;;;;21.66;38.16;94311.09;5044246;28;20037;-53
2021/12/20 03:22:29;;;;;;;3.22;2.10;;;;;;;21.65;38.23;94317.78;5047554;28;20025;-56
2021/12/20 03:24:54;;;;;;;3.13;2.10;;;;;;;21.66;38.17;94302.94;5047565;28;20086;-54
2021/12/20 03:27:20;;;;;;;3.42;1.85;;;;;;;21.65;38.25;94309.63;5029333;28;20037;-55
2021/12/20 03:29:46;;;;;;;3.88;2.33;;;;;;;21.50;38.28;94293.03;5046886;28;20347;-53
2021/12/20 03:32:11;;;;;;;3.20;1.92;;;;;;;21.62;38.30;94313.38;5028893;28;20510;-53
2021/12/20 03:34:37;;;;;;;3.58;2.17;;;;;;;21.62;38.31;94326.94;5046955;28;20024;-53
2021/12/20 03:37:02;;;;;;;2.90;1.90;;;;;;;21.61;38.29;94328.19;5033896;28;20494;-56
2021/12/20 03:39:28;;;;;;;2.75;1.70;;;;;;;21.61;38.26;94339.06;5043036;28;20801;-55
2021/12/20 03:41:53;;;;;;;3.95;2.42;;;;;;;21.61;38.29;94325.47;5047163;28;20036;-58
2021/12/20 03:44:18;;;;;;;2.88;1.92;;;;;;;21.60;38.32;94334.88;5047030;28;20455;-58
2021/12/20 03:46:44;;;;;;;2.60;1.80;;;;;;;21.59;38.33;94333.41;5047003;28;20029;-59
2021/12/20 03:49:09;;;;;;;3.55;1.92;;;;;;;21.58;38.27;94321.81;5046604;28;20450;-58
2021/12/20 03:51:35;;;;;;;3.92;2.15;;;;;;;21.58;38.33;94332.69;5046374;28;20029;-59
2021/12/20 03:54:01;;;;;;;3.17;2.22;;;;;;;21.57;38.30;94341.34;5046712;28;20031;-56
2021/12/20 03:56:26;;;;;;;3.83;2.22;;;;;;;21.55;38.20;94327.53;5046672;28;20112;-58
2021/12/20 03:58:52;;;;;;;5.20;2.38;;;;;;;21.55;38.31;94332.97;5046679;28;20021;-59
2021/12/20 04:01:17;;;;;;;2.83;1.83;;;;;;;21.55;38.33;94339.16;5046718;28;20021;-58
2021/12/20 04:03:43;;;;;;;2.78;2.00;;;;;;;21.54;38.27;94334.94;5028503;28;20055;-59
2021/12/20 04:06:10;;;;;;;2.80;1.75;;;;;;;21.43;38.32;94315.31;5046435;28;20037;-58
2021/12/20 04:08:35;;;;;;;3.60;2.05;;;;;;;21.54;38.37;94347.81;5046414;28;20323;-57
2021/12/20 04:11:01;;;;;;;2.65;1.65;;;;;;;21.52;38.39;94345.59;5057591;28;20052;-57
2021/12/20 04:13:26;;;;;;;3.25;1.85;;;;;;;21.53;38.17;94352.47;5066536;28;20020;-58
2021/12/20 04:15:53;;;;;;;2.72;1.70;;;;;;;21.52;38.25;94356.47;5062916;28;20040;-58
2021/12/20 04:18:19;;;;;;;3.17;2.00;;;;;;;21.37;38.16;94328.22;5046565;28;20431;-58
2021/12/20 04:20:44;;;;;;;3.30;1.90;;;;;;;21.51;38.25;94354.25;5046550;28;20485;-57
2021/12/20 04:23:09;;;;;;;2.70;1.88;;;;;;;21.51;38.49;94370.56;5046051;28;20045;-53
2021/12/20 04:25:35;;;;;;;2.60;1.77;;;;;;;21.50;38.37;94374.53;5046203;28;20037;-53
2021/12/20 04:28:00;;;;;;;2.90;1.77;;;;;;;21.50;38.37;94363.66;5046382;28;20502;-54
2021/12/20 04:30:29;;;;;;;2.95;1.90;;;;;;;21.49;38.28;94368.34;5046323;28;20017;-54
2021/12/20 04:32:54;;;;;;;3.30;2.17;;;;;;;21.45;38.23;94367.16;5045443;28;20035;-55
2021/12/20 04:35:19;;;;;;;2.45;1.70;;;;;;;21.48;38.35;94360.72;5046482;28;20025;-57
2021/12/20 04:37:47;;;;;;;2.92;1.80;;;;;;;21.47;38.54;94367.38;5046054;28;20033;-53
2021/12/20 04:40:18;;;;;;;2.45;1.70;;;;;;;21.48;38.41;94366.16;5046198;28;20025;-57
2021/12/20 04:42:43;;;;;;;2.70;1.50;;;;;;;21.46;38.40;94374.06;5045968;28;20036;-57
2021/12/20 04:45:09;;;;;;;3.08;2.20;;;;;;;21.46;38.26;94374.81;5046276;28;20037;-58
2021/12/20 04:47:34;;;;;;;2.90;1.88;;;;;;;21.45;38.46;94383.44;5045733;28;20040;-57
2021/12/20 04:49:59;;;;;;;3.47;2.15;;;;;;;21.42;38.49;94373.59;5045626;28;20412;-54
2021/12/20 04:52:26;;;;;;;2.60;1.58;;;;;;;21.44;38.47;94382.69;5046062;28;20029;-53
2021/12/20 04:54:51;;;;;;;2.40;1.60;;;;;;;21.44;38.32;94376.53;5045634;28;20068;-54
2021/12/20 04:57:17;;;;;;;2.30;1.88;;;;;;;21.43;38.42;94392.09;5030362;28;20041;-56
2021/12/20 04:59:42;;;;;;;2.60;1.65;;;;;;;21.44;38.45;94387.41;5039209;28;20034;-56
2021/12/20 05:02:08;;;;;;;3.00;1.95;;;;;;;21.43;38.45;94386.69;5044647;28;20086;-58
2021/12/20 05:04:33;;;;;;;2.72;1.65;;;;;;;21.44;38.37;94400.97;5045125;28;20057;-53
2021/12/20 05:06:59;;;;;;;2.90;2.05;;;;;;;21.40;38.53;94386.94;5045842;28;20035;-54
2021/12/20 05:09:28;;;;;;;3.10;1.70;;;;;;;21.42;38.55;94394.56;5045431;28;20032;-54
2021/12/20 05:12:01;;;;;;;3.30;2.03;;;;;;;21.41;38.53;94399.28;5045435;28;20032;-53
2021/12/20 05:14:26;;;;;;;3.00;1.75;;;;;;;21.40;38.45;94403.25;5053418;28;20051;-55
2021/12/20 05:16:52;;;;;;;2.42;1.60;;;;;;;21.39;38.50;94407.22;5053932;28;20166;-55
2021/12/20 05:19:17;;;;;;;3.05;1.88;;;;;;;21.39;38.31;94412.66;5045411;28;20057;-54
2021/12/20 05:21:43;;;;;;;3.53;2.05;;;;;;;21.40;38.47;94418.81;5045111;28;20439;-54
2021/12/20 05:24:08;;;;;;;2.60;1.90;;;;;;;21.39;38.52;94415.38;5045101;28;20036;-53
2021/12/20 05:26:34;;;;;;;2.78;1.80;;;;;;;21.38;38.66;94411.16;5045369;28;20032;-58
2021/12/20 05:29:00;;;;;;;2.70;2.13;;;;;;;21.38;38.55;94411.16;5044822;28;20029;-58
2021/12/20 05:31:26;;;;;;;2.50;1.90;;;;;;;21.37;38.47;94420.56;5044931;28;20495;-53
2021/12/20 05:33:51;;;;;;;3.63;2.10;;;;;;;21.38;38.56;94427.47;5045002;28;20033;-53
2021/12/20 05:36:17;;;;;;;2.85;1.73;;;;;;;21.37;38.16;94431.41;5044653;28;20075;-53
2021/12/20 05:38:42;;;;;;;2.80;1.70;;;;;;;21.36;38.41;94424.53;5045159;28;20056;-53
2021/12/20 05:41:07;;;;;;;3.30;1.70;;;;;;;21.34;38.61;94432.44;5045287;28;20494;-54
2021/12/20 05:43:33;;;;;;;3.03;1.80;;;;;;;21.37;38.37;94431.41;5044530;28;20428;-53
2021/12/20 05:45:58;;;;;;;3.20;2.08;;;;;;;21.37;38.10;94434.13;5044925;28;20040;-56
2021/12/20 05:48:24;;;;;;;3.75;2.20;;;;;;;21.34;38.66;94437.88;5044542;28;20043;-56
2021/12/20 05:50:49;;;;;;;2.50;1.75;;;;;;;21.34;38.41;94421.56;5044795;28;20039;-57
2021/12/20 05:53:14;;;;;;;3.28;2.00;;;;;;;21.33;38.56;94428.25;5044667;28;20036;-55
2021/12/20 05:55:40;;;;;;;2.92;1.90;;;;;;;21.32;38.48;94424.06;5043315;28;20427;-56
2021/12/20 05:58:05;;;;;;;3.05;2.20;;;;;;;21.32;38.54;94417.91;5029084;28;20515;-56
2021/12/20 06:00:31;;;;;;;4.22;2.10;;;;;;;21.30;38.38;94426.56;5052924;28;20032;-56
2021/12/20 06:02:56;;;;;;;3.05;1.80;;;;;;;21.32;38.61;94426.78;5064699;28;20483;-58
2021/12/20 06:05:21;;;;;;;2.60;1.80;;;;;;;21.31;38.47;94436.16;5064681;28;20040;-58
2021/12/20 06:07:47;;;;;;;3.08;1.83;;;;;;;21.30;38.61;94442.88;5044087;28;20055;-56
2021/12/20 06:10:17;;;;;;;2.90;2.05;;;;;;;21.30;38.37;94437.44;5044423;28;20044;-54
2021/12/20 06:12:42;;;;;;;2.72;1.77;;;;;;;21.39;38.27;94434.38;5043991;28;20122;-55
2021/12/20 06:15:08;;;;;;;2.20;1.60;;;;;;;21.48;38.30;94431.34;5044156;28;20466;-55
2021/12/20 06:17:34;;;;;;;3.63;2.30;;;;;;;21.55;38.26;94436.94;5043783;28;20100;-54
2021/12/20 06:20:01;;;;;;;3.83;1.80;;;;;;;21.61;38.38;94439.59;5043930;28;20582;-54
2021/12/20 06:22:26;;;;;;;3.55;1.83;;;;;;;21.62;38.37;94432.91;5051047;28;20028;-51
2021/12/20 06:24:51;;;;;;;2.72;1.95;;;;;;;21.61;38.45;94434.16;5052960;28;20033;-52
2021/12/20 06:27:17;;;;;;;7.22;2.45;;;;;;;21.65;38.37;94445.47;5043422;28;20047;-53
2021/12/20 06:29:42;;;;;;;16.05;2.55;;;;;;;21.69;38.49;94451.38;5045932;28;20035;-52
2021/12/20 06:32:07;;;;;;;5.68;2.00;;;;;;;21.73;38.59;94457.22;5044090;28;20025;-53
2021/12/20 06:34:33;;;;;;;11.77;2.50;;;;;;;21.77;38.39;94463.13;5044381;28;20033;-52
2021/12/20 06:36:58;;;;;;;6.53;2.53;;;;;;;21.86;38.40;94449.19;5055834;28;20417;-52
2021/12/20 06:39:24;;;;;;;6.93;2.25;;;;;;;21.94;38.68;94467.84;5060834;28;20585;-52
2021/12/20 06:41:50;;;;;;;6.10;2.10;;;;;;;22.04;38.39;94462.78;5058719;28;20505;-54
2021/12/20 06:44:16;;;;;;;9.02;2.38;;;;;;;22.15;38.29;94455.22;5060874;28;20103;-58
2021/12/20 06:46:42;;;;;;;8.55;2.30;;;;;;;22.25;38.25;94463.78;5061100;28;20036;-54
2021/12/20 06:49:09;;;;;;;7.50;2.30;;;;;;;22.32;38.10;94461.22;5060624;28;20035;-53
2021/12/20 06:51:40;;;;;;;7.38;2.58;;;;;;;22.41;37.87;94455.41;5060219;28;20070;-54
2021/12/20 06:54:05;;;;;;;10.57;2.70;;;;;;;22.54;37.85;94463.59;5059442;28;20021;-52
2021/12/20 06:56:31;;;;;;;15.35;11.50;;;;;;;22.66;37.68;94459.47;5061504;28;20139;-54
2021/12/20 06:58:56;;;;;;;12.57;7.47;;;;;;;22.77;37.36;94459.31;5063126;28;20418;-55
2021/12/20 07:01:21;;;;;;;7.78;2.63;;;;;;;22.91;37.20;94454.13;5063949;28;20375;-52
2021/12/20 07:03:47;;;;;;;10.75;2.50;;;;;;;23.06;37.20;94453.66;5061607;28;20544;-51
2021/12/20 07:06:13;;;;;;;9.13;3.40;;;;;;;23.19;36.99;94473.50;5064277;28;20074;-53
2021/12/20 07:08:38;;;;;;;16.00;2.80;;;;;;;23.34;36.48;94457.38;5064772;28;20024;-51
2021/12/20 07:11:05;;;;;;;11.10;2.50;;;;;;;23.50;36.09;94456.38;5046727;28;20020;-56
2021/12/20 07:13:31;;;;;;;10.70;2.95;;;;;;;23.62;35.93;94455.63;5064443;28;20012;-54
2021/12/20 07:15:57;;;;;;;8.48;2.50;;;;;;;23.72;35.91;94453.25;5057204;28;20034;-54
2021/12/20 07:18:22;;;;;;;10.15;2.97;;;;;;;23.90;35.58;94464.78;5064472;28;20052;-55
2021/12/20 07:20:47;;;;;;;10.63;2.60;;;;;;;23.98;35.63;94451.97;5064769;28;20032;-53
2021/12/20 07:23:13;;;;;;;9.90;2.85;;;;;;;24.09;35.64;94449.00;5064361;28;20047;-54
2021/12/20 07:25:38;;;;;;;7.45;2.60;;;;;;;24.25;35.49;94456.13;5065178;28;20028;-54
2021/12/20 07:28:04;;;;;;;11.73;3.17;;;;;;;24.31;34.75;94448.56;5062691;28;20021;-60
2021/12/20 07:30:30;;;;;;;11.38;2.55;;;;;;;24.45;34.67;94474.56;5064523;28;20023;-54
2021/12/20 07:32:56;;;;;;;9.63;2.67;;;;;;;24.58;35.06;94474.53;5064537;28;20036;-53
2021/12/20 07:35:22;;;;;;;13.55;4.30;;;;;;;24.65;34.33;94465.69;5064570;28;20490;-51
2021/12/20 07:37:48;;;;;;;11.75;2.58;;;;;;;24.69;34.59;94455.19;5042573;28;20117;-57
2021/12/20 07:40:14;;;;;;;10.50;2.80;;;;;;;24.79;34.24;94461.66;5046091;28;20131;-54
2021/12/20 07:42:39;;;;;;;8.98;2.75;;;;;;;24.89;34.30;94464.13;5063941;28;20028;-55
2021/12/20 07:45:07;;;;;;;9.65;2.95;;;;;;;24.95;34.04;94456.53;5064390;28;20032;-52
2021/12/20 07:47:32;;;;;;;10.07;2.60;;;;;;;25.04;33.99;94464.28;5064260;28;20111;-54
2021/12/20 07:49:58;;;;;;;24.33;14.80;;;;;;;25.10;33.80;94451.22;5061831;28;20522;-51
2021/12/20 07:52:23;;;;;;;49.20;23.20;;;;;;;25.17;33.48;94456.03;5064403;28;20036;-52
2021/12/20 07:54:48;;;;;;;11.52;2.78;;;;;;;25.23;33.44;94469.53;5063858;28;20032;-53
2021/12/20 07:57:14;;;;;;;15.05;7.65;;;;;;;25.32;33.47;94467.09;5040180;28;20033;-56
2021/12/20 07:59:39;;;;;;;6.50;3.05;;;;;;;25.34;33.57;94464.53;5043519;28;20029;-53
2021/12/20 08:02:05;;;;;;;21.52;13.73;;;;;;;25.40;33.65;94473.34;5046902;28;20029;-56
2021/12/20 08:04:31;;;;;;;11.60;3.00;;;;;;;25.43;33.54;94462.06;5047148;28;20028;-50
2021/12/20 08:06:57;;;;;;;8.00;2.50;;;;;;;25.54;33.73;94477.44;5045570;28;20064;-54
2021/12/20 08:09:22;;;;;;;9.63;2.67;;;;;;;25.57;33.79;94462.72;5046957;28;20411;-51
2021/12/20 08:11:48;;;;;;;7.05;2.50;;;;;;;25.57;33.72;94476.38;5047524;28;20090;-56
2021/12/20 08:14:13;;;;;;;9.93;2.63;;;;;;;25.62;33.77;94464.56;5046958;28;20025;-53
2021/12/20 08:16:39;;;;;;;9.18;2.28;;;;;;;25.72;33.64;94476.50;5049681;28;20040;-52
2021/12/20 08:19:04;;;;;;;7.55;2.10;;;;;;;25.76;33.72;94482.38;5049431;28;20473;-53
2021/12/20 08:21:29;;;;;;;6.50;2.40;;;;;;;25.76;33.58;94482.38;5029428;28;20029;-53
2021/12/20 08:23:55;;;;;;;10.77;3.40;;;;;;;25.79;33.63;94476.56;5047848;28;20033;-53
2021/12/20 08:26:20;;;;;;;5.40;2.13;;;;;;;25.82;33.39;94484.41;5047530;28;20032;-52
2021/12/20 08:28:46;;;;;;;4.55;2.22;;;;;;;25.88;33.46;94474.06;5046191;28;20049;-53
2021/12/20 08:31:11;;;;;;;8.68;2.30;;;;;;;25.92;33.41;94479.19;5048281;28;20544;-55
2021/12/20 08:33:37;;;;;;;6.75;2.20;;;;;;;26.00;33.43;94475.22;5067308;28;20036;-55
2021/12/20 08:36:04;;;;;;;10.95;2.67;;;;;;;26.01;33.35;94471.22;5061242;28;20033;-59
2021/12/20 08:38:29;;;;;;;6.70;2.40;;;;;;;26.03;33.27;94473.41;5034806;28;20032;-54
2021/12/20 08:40:55;;;;;;;6.30;2.58;;;;;;;26.07;33.30;94482.00;5049245;28;20024;-59
2021/12/20 08:43:21;;;;;;;8.90;2.40;;;;;;;26.06;33.15;94489.47;5048958;28;20074;-52
2021/12/20 08:45:46;;;;;;;7.32;2.45;;;;;;;26.07;33.48;94479.25;5065187;28;20025;-53
2021/12/20 08:48:12;;;;;;;5.72;1.98;;;;;;;25.94;31.99;94488.31;5047483;28;20021;-54
2021/12/20 08:50:37;;;;;;;2.85;1.60;;;;;;;25.48;24.52;94485.78;5034950;28;20467;-57
2021/12/20 08:53:03;;;;;;;5.60;1.90;;;;;;;25.37;29.19;94496.28;5045880;28;20029;-54
2021/12/20 08:55:30;;;;;;;5.53;2.30;;;;;;;25.50;31.93;94487.97;5027348;28;20115;-55
2021/12/20 08:57:57;;;;;;;4.75;2.17;;;;;;;25.61;32.52;94498.66;5046443;28;20021;-53
2021/12/20 09:00:24;;;;;;;4.05;1.90;;;;;;;25.72;32.76;94492.91;5043926;28;20494;-56
2021/12/20 09:02:50;;;;;;;4.85;2.60;;;;;;;25.79;32.60;94486.78;5008216;28;20029;-55
2021/12/20 09:05:15;;;;;;;6.70;2.25;;;;;;;25.73;32.47;94472.53;5042475;28;20422;-51
2021/12/20 09:07:41;;;;;;;7.53;2.00;;;;;;;25.91;32.93;94483.19;5049271;28;20032;-52
2021/12/20 09:10:08;;;;;;;4.18;1.88;;;;;;;25.95;32.66;94487.06;5045755;28;20107;-53
2021/12/20 09:12:34;;;;;;;7.57;2.28;;;;;;;26.03;32.39;94490.56;5055945;28;20074;-53
2021/12/20 09:14:59;;;;;;;4.85;1.80;;;;;;;26.08;32.29;94492.41;5049107;28;20045;-51
2021/12/20 09:17:25;;;;;;;6.95;2.58;;;;;;;26.09;32.38;94471.97;5030589;28;20048;-54
2021/12/20 09:19:51;;;;;;;6.15;1.92;;;;;;;25.92;29.47;94485.41;5042903;28;20041;-52
2021/12/20 09:22:17;;;;;;;4.32;1.85;;;;;;;25.94;31.46;94493.78;5023708;28;20117;-52
2021/12/20 09:24:42;;;;;;;6.72;1.83;;;;;;;25.97;31.95;94486.53;5051567;28;20028;-53
2021/12/20 09:27:08;;;;;;;4.38;1.70;;;;;;;26.02;32.31;94483.63;5045109;28;20041;-56
2021/12/20 09:29:33;;;;;;;4.70;1.88;;;;;;;26.11;32.28;94491.31;5045143;28;20021;-53
2021/12/20 09:31:59;;;;;;;6.00;2.38;;;;;;;26.18;32.45;94496.13;5045201;28;20032;-51
2021/12/20 09:34:24;;;;;;;6.10;2.20;;;;;;;26.20;32.61;94493.56;5044940;28;20032;-53
2021/12/20 09:36:53;;;;;;;8.00;2.30;;;;;;;26.22;32.70;94485.56;5043867;28;20044;-53
2021/12/20 09:39:20;;;;;;;3.70;1.50;;;;;;;26.30;32.46;94491.81;5042992;28;20056;-53
2021/12/20 09:44:11;;;;;;;85.10;50.55;;;;;;;26.31;32.57;94494.03;5043819;28;20029;-53
2021/12/20 09:46:37;;;;;;;8.35;3.65;;;;;;;26.32;32.49;94489.28;5053218;28;20059;-54
2021/12/20 09:49:03;;;;;;;5.32;1.50;;;;;;;26.28;31.88;94483.44;5044089;28;20068;-58
2021/12/20 09:51:28;;;;;;;5.00;1.88;;;;;;;26.28;32.40;94494.38;5044590;28;20507;-53
2021/12/20 09:53:57;;;;;;;5.22;1.75;;;;;;;26.30;32.36;94489.09;5058062;28;20039;-54
2021/12/20 09:56:27;;;;;;;5.05;1.67;;;;;;;26.30;32.57;94494.56;5061067;28;20496;-56
2021/12/20 09:58:54;;;;;;;4.28;1.52;;;;;;;26.34;32.26;94492.22;5052836;28;20045;-54
2021/12/20 10:01:21;;;;;;;5.35;1.92;;;;;;;26.35;32.31;94478.00;5044556;28;20033;-52
2021/12/20 10:03:47;;;;;;;3.58;1.40;;;;;;;26.34;32.34;94475.78;5029300;28;20103;-54
2021/12/20 10:06:12;;;;;;;7.90;2.97;;;;;;;26.38;32.39;94478.91;5011399;28;20047;-53
2021/12/20 10:08:48;;;;;;;3.30;1.55;;;;;;;26.40;32.25;94473.63;5061035;28;20031;-54
2021/12/20 10:11:25;;;;;;;3.83;2.03;;;;;;;26.45;32.31;94478.19;5057902;28;20496;-53
2021/12/20 10:14:09;;;;;;;4.43;2.63;;;;;;;26.43;32.28;94478.03;5057153;28;20399;-52
2021/12/20 10:16:34;;;;;;;3.53;1.30;;;;;;;26.43;32.21;94461.59;5037042;28;20060;-55
2021/12/20 10:19:00;;;;;;;3.17;1.73;;;;;;;26.46;31.98;94479.69;5034854;28;20091;-55
2021/12/20 10:21:39;;;;;;;3.13;1.35;;;;;;;26.51;32.13;94473.28;5044684;28;20157;-53
2021/12/20 10:24:05;;;;;;;3.83;1.43;;;;;;;26.53;31.77;94476.97;5044169;28;20513;-54
2021/12/20 10:26:37;;;;;;;3.47;1.80;;;;;;;26.40;31.80;94451.72;5049302;28;20032;-55
2021/12/20 10:29:03;;;;;;;3.15;1.48;;;;;;;26.54;32.31;94472.22;5052451;28;20067;-55
2021/12/20 10:31:28;;;;;;;2.63;1.42;;;;;;;26.53;32.08;94470.72;5014786;28;20542;-55
2021/12/20 10:33:59;;;;;;;3.50;1.48;;;;;;;26.57;32.00;94473.84;5044144;28;20536;-54
2021/12/20 10:36:24;;;;;;;5.32;1.67;;;;;;;26.55;31.91;94462.72;5038381;28;20036;-54
2021/12/20 10:38:56;;;;;;;7.53;4.80;;;;;;;26.42;31.99;94454.63;5033179;28;20033;-55
2021/12/20 10:41:34;;;;;;;2.88;1.60;;;;;;;26.58;31.89;94483.56;5044156;28;20025;-55
2021/12/20 10:44:02;;;;;;;4.13;1.70;;;;;;;26.57;31.87;94471.84;5026942;28;20033;-52
2021/12/20 10:46:32;;;;;;;3.00;1.40;;;;;;;26.56;32.04;94480.59;5043922;28;20090;-56
2021/12/20 10:49:02;;;;;;;3.83;1.20;;;;;;;26.59;31.81;94474.03;5043827;28;20025;-55
2021/12/20 10:51:33;;;;;;;3.38;1.60;;;;;;;26.57;31.95;94474.59;5044092;28;20044;-54
2021/12/20 10:54:03;;;;;;;2.78;1.35;;;;;;;26.58;31.93;94489.03;5043831;28;20040;-55
2021/12/20 10:56:29;;;;;;;3.65;1.98;;;;;;;26.62;31.96;94478.44;5036996;28;20794;-54
2021/12/20 10:58:55;;;;;;;2.10;1.30;;;;;;;26.62;31.89;94489.38;5032252;28;20121;-56
2021/12/20 11:02:04;;;;;;;3.05;1.15;;;;;;;26.65;31.76;94477.34;5053163;28;20513;-56
2021/12/20 11:04:27;;;;;;;4.90;1.83;;;;;;;26.67;31.62;94472.06;5028919;28;20048;-55
2021/12/20 11:09:44;;;;;;;2.80;1.42;;;;;;;26.78;31.57;94481.41;5049340;28;20081;-54
2021/12/20 11:12:15;;;;;;;3.92;1.40;;;;;;;26.76;31.67;94493.47;5059105;28;20055;-54
2021/12/20 11:14:43;;;;;;;3.45;1.27;;;;;;;26.77;31.61;94495.66;5053191;28;20063;-53
2021/12/20 11:17:10;;;;;;;3.83;1.38;;;;;;;26.76;31.60;94483.97;5043673;28;20048;-54
2021/12/20 11:19:37;;;;;;;4.13;2.05;;;;;;;26.76;31.61;94477.75;5043638;28;20048;-56
2021/12/20 11:22:12;;;;;;;2.53;1.20;;;;;;;26.81;31.67;94480.31;5062854;28;20091;-55
2021/12/20 11:24:38;;;;;;;3.05;1.35;;;;;;;26.78;31.60;94486.88;5064024;28;20051;-52
2021/12/20 11:27:05;;;;;;;2.95;1.42;;;;;;;26.76;31.66;94486.69;5063888;28;20499;-54
2021/12/20 11:29:30;;;;;;;2.50;1.40;;;;;;;26.78;31.45;94475.91;5049219;28;20411;-53
2021/12/20 11:31:56;;;;;;;2.83;1.30;;;;;;;26.77;31.45;94473.75;5048346;28;20017;-53
2021/12/20 11:34:21;;;;;;;3.47;1.52;;;;;;;26.76;31.40;94477.03;5059348;28;20520;-53
2021/12/20 11:36:47;;;;;;;3.67;1.20;;;;;;;26.75;31.46;94475.56;5058904;28;20035;-53
2021/12/20 11:39:12;;;;;;;3.40;1.77;;;;;;;26.76;31.66;94483.22;5060970;28;20033;-53
2021/12/20 11:41:38;;;;;;;3.05;1.23;;;;;;;26.79;31.47;94471.91;5050214;28;20028;-55